Time;durP1;ratioP1;P1;durP2;ratioP2;P2;SDS_P1;SDS_P2;PMS_P1;PMS_P2;Temp;Humidity;BMP_temperature;BMP_pressure;BME280_temperature;BME280_humidity;BME280_pressure;Samples;Min_cycle;Max_cycle;Signal;HPM_P1;HPM_P2
2024/01/19 00:01:10;;;;;;;;;;;;;;;9.68;100.00;94247.09;5076463;28;1031;-64
2024/01/19 00:03:42;;;;;;;;;;;;;;;9.59;100.00;94248.97;5076739;28;1000;-64
2024/01/19 00:06:15;;;;;;;;;;;;;;;9.64;100.00;94251.13;5076524;28;933;-63
2024/01/19 00:08:47;;;;;;;;;;;;;;;9.65;100.00;94260.78;5076639;28;1910;-63
2024/01/19 00:11:20;;;;;;;;;;;;;;;9.55;100.00;94275.19;5076726;28;900;-63
2024/01/19 00:13:52;;;;;;;;;;;;;;;9.48;100.00;94270.72;5076461;28;925;-63
2024/01/19 00:16:26;;;;;;;;;;;;;;;9.31;100.00;94270.00;5076501;28;1023;-64
2024/01/19 00:19:00;;;;;;;;;;;;;;;9.40;100.00;94260.94;5075228;28;1004;-65
2024/01/19 00:21:34;;;;;;;;;;;;;;;9.41;100.00;94256.44;5076100;28;1131;-63
2024/01/19 00:24:08;;;;;;;;;;;;;;;9.26;100.00;94248.34;5075814;28;1261;-63
2024/01/19 00:26:47;;;;;;;;;;;;;;;9.07;100.00;94239.78;5076054;28;961;-64
2024/01/19 00:29:19;;;;;;;;;;;;;;;9.01;100.00;94234.31;5075995;28;1909;-63
2024/01/19 00:31:51;;;;;;;;;;;;;;;9.25;100.00;94238.69;5075924;28;974;-66
2024/01/19 00:34:23;;;;;;;;;;;;;;;9.37;100.00;94246.13;5075751;28;931;-67
2024/01/19 00:36:56;;;;;;;;;;;;;;;9.40;100.00;94249.44;5075823;28;945;-64
2024/01/19 00:39:29;;;;;;;;;;;;;;;9.48;100.00;94242.22;5075412;28;945;-61
2024/01/19 00:42:03;;;;;;;;;;;;;;;9.52;100.00;94240.88;5075890;28;948;-62
2024/01/19 00:44:36;;;;;;;;;;;;;;;9.39;100.00;94245.97;5075672;28;1012;-62
2024/01/19 00:47:11;;;;;;;;;;;;;;;9.44;100.00;94234.75;5075254;28;927;-62
2024/01/19 00:49:44;;;;;;;;;;;;;;;9.51;100.00;94238.38;5075549;28;1981;-61
2024/01/19 00:52:19;;;;;;;;;;;;;;;9.25;100.00;94238.69;5071765;28;1153;-61
2024/01/19 00:54:52;;;;;;;;;;;;;;;9.32;100.00;94237.00;5055129;28;932;-62
2024/01/19 00:57:25;;;;;;;;;;;;;;;9.44;100.00;94242.75;5055107;28;948;-63
2024/01/19 00:59:58;;;;;;;;;;;;;;;9.51;100.00;94252.53;5055060;28;937;-63
2024/01/19 01:02:33;;;;;;;;;;;;;;;9.56;100.00;94242.16;5055362;28;1028;-63
2024/01/19 01:05:06;;;;;;;;;;;;;;;9.42;100.00;94239.44;5055061;28;937;-62
2024/01/19 01:07:40;;;;;;;;;;;;;;;9.41;100.00;94233.28;5055021;28;984;-63
2024/01/19 01:10:11;;;;;;;;;;;;;;;9.40;100.00;94228.94;5054308;28;1906;-62
2024/01/19 01:12:44;;;;;;;;;;;;;;;9.34;100.00;94221.63;5055253;28;946;-62
2024/01/19 01:15:17;;;;;;;;;;;;;;;9.34;100.00;94217.13;5054948;28;1035;-62
2024/01/19 01:17:52;;;;;;;;;;;;;;;9.27;100.00;94213.50;5055056;28;985;-61
2024/01/19 01:20:26;;;;;;;;;;;;;;;9.11;100.00;94210.94;5054653;28;1031;-61
2024/01/19 01:22:59;;;;;;;;;;;;;;;9.16;100.00;94204.06;5054898;28;945;-62
2024/01/19 01:25:33;;;;;;;;;;;;;;;9.12;100.00;94205.41;5054403;28;1236;-62
2024/01/19 01:28:06;;;;;;;;;;;;;;;8.91;100.00;94203.34;5054726;28;925;-62
2024/01/19 01:30:41;;;;;;;;;;;;;;;8.94;100.00;94202.19;5054475;28;1979;-62
2024/01/19 01:33:15;;;;;;;;;;;;;;;8.87;100.00;94198.56;5053255;28;973;-61
2024/01/19 01:35:48;;;;;;;;;;;;;;;8.88;100.00;94195.72;5054653;28;945;-62
2024/01/19 01:38:21;;;;;;;;;;;;;;;8.64;100.00;94211.81;5054499;28;936;-62
2024/01/19 01:40:55;;;;;;;;;;;;;;;8.64;100.00;94211.81;5054803;28;981;-62
2024/01/19 01:43:29;;;;;;;;;;;;;;;8.53;100.00;94208.50;5054247;28;1024;-62
2024/01/19 01:46:02;;;;;;;;;;;;;;;8.68;100.00;94213.94;5054545;28;981;-62
2024/01/19 01:48:37;;;;;;;;;;;;;;;8.87;100.00;94209.22;5054437;28;1909;-62
2024/01/19 01:51:12;;;;;;;;;;;;;;;8.69;100.00;94202.31;5054261;28;949;-62
2024/01/19 01:53:44;;;;;;;;;;;;;;;8.75;100.00;94222.91;5069102;28;1177;-62
2024/01/19 01:56:17;;;;;;;;;;;;;;;8.84;100.00;94209.56;5074265;28;1000;-64
2024/01/19 01:58:51;;;;;;;;;;;;;;;8.81;100.00;94220.56;5074081;28;1023;-62
2024/01/19 02:01:25;;;;;;;;;;;;;;;8.83;100.00;94230.06;5073843;28;988;-62
2024/01/19 02:03:59;;;;;;;;;;;;;;;8.97;100.00;94234.66;5073813;28;1013;-61
2024/01/19 02:06:33;;;;;;;;;;;;;;;9.09;100.00;94234.28;5072393;28;953;-62
2024/01/19 02:09:08;;;;;;;;;;;;;;;9.11;100.00;94235.75;5073584;28;1969;-62
2024/01/19 02:11:43;;;;;;;;;;;;;;;9.03;100.00;94230.47;5073901;28;933;-62
2024/01/19 02:14:17;;;;;;;;;;;;;;;8.91;100.00;94234.50;5073917;28;953;-62
2024/01/19 02:16:51;;;;;;;;;;;;;;;8.66;100.00;94242.59;5073818;28;949;-61
2024/01/19 02:19:25;;;;;;;;;;;;;;;8.68;100.00;94245.09;5073427;28;977;-60
2024/01/19 02:22:00;;;;;;;;;;;;;;;8.84;100.00;94249.53;5073323;28;1016;-61
2024/01/19 02:24:35;;;;;;;;;;;;;;;8.80;100.00;94238.38;5073307;28;1108;-62
2024/01/19 02:27:10;;;;;;;;;;;;;;;8.57;100.00;94236.50;5073686;28;961;-61
2024/01/19 02:29:49;;;;;;;;;;;;;;;8.62;100.00;94245.78;5073309;28;1914;-62
2024/01/19 02:32:24;;;;;;;;;;;;;;;8.69;100.00;94246.75;5073439;28;968;-61
2024/01/19 02:34:58;;;;;;;;;;;;;;;8.76;100.00;94245.06;5073721;28;913;-61
2024/01/19 02:37:32;;;;;;;;;;;;;;;8.71;100.00;94239.44;5073413;28;925;-62
2024/01/19 02:40:07;;;;;;;;;;;;;;;8.68;100.00;94243.25;5073576;28;1016;-62
2024/01/19 02:42:41;;;;;;;;;;;;;;;8.76;100.00;94255.72;5073399;28;960;-61
2024/01/19 02:45:14;;;;;;;;;;;;;;;8.65;100.00;94262.28;5073859;28;1542;-64
2024/01/19 02:47:47;;;;;;;;;;;;;;;8.55;100.00;94259.78;5073725;28;1504;-64
2024/01/19 02:50:22;;;;;;;;;;;;;;;8.65;100.00;94256.94;5073529;28;1997;-65
2024/01/19 02:52:56;;;;;;;;;;;;;;;8.50;100.00;94264.81;5064990;28;1193;-64
2024/01/19 02:55:30;;;;;;;;;;;;;;;8.56;100.00;94271.28;5053306;28;917;-64
2024/01/19 02:58:05;;;;;;;;;;;;;;;8.60;100.00;94268.09;5053760;28;933;-64
2024/01/19 03:00:39;;;;;;;;;;;;;;;8.58;100.00;94274.63;5053488;28;1432;-64
2024/01/19 03:03:13;;;;;;;;;;;;;;;8.65;100.00;94270.28;5053300;28;942;-64
2024/01/19 03:05:47;;;;;;;;;;;;;;;8.46;100.00;94265.28;5053729;28;924;-64
2024/01/19 03:08:22;;;;;;;;;;;;;;;8.43;100.00;94273.66;5053279;28;930;-64
2024/01/19 03:10:56;;;;;;;;;;;;;;;8.56;100.00;94279.28;5053351;28;1910;-64
2024/01/19 03:13:31;;;;;;;;;;;;;;;8.57;100.00;94272.94;5053320;28;1084;-64
2024/01/19 03:16:05;;;;;;;;;;;;;;;8.52;100.00;94269.97;5053386;28;936;-63
2024/01/19 03:18:40;;;;;;;;;;;;;;;8.73;100.00;94278.22;5053351;28;922;-64
2024/01/19 03:21:15;;;;;;;;;;;;;;;8.81;100.00;94273.88;5053126;28;922;-64
2024/01/19 03:23:49;;;;;;;;;;;;;;;8.66;100.00;94261.25;5053293;28;1192;-65
2024/01/19 03:26:24;;;;;;;;;;;;;;;8.62;100.00;94275.09;5053078;28;1016;-66
2024/01/19 03:28:58;;;;;;;;;;;;;;;8.69;100.00;94281.41;5053025;28;1906;-65
2024/01/19 03:31:32;;;;;;;;;;;;;;;8.86;100.00;94276.84;5053441;28;997;-65
2024/01/19 03:34:07;;;;;;;;;;;;;;;8.89;100.00;94284.50;5055419;28;932;-65
2024/01/19 03:36:41;;;;;;;;;;;;;;;8.75;100.00;94267.41;5056799;28;999;-63
2024/01/19 03:39:16;;;;;;;;;;;;;;;8.59;100.00;94269.13;5056813;28;960;-64
2024/01/19 03:41:50;;;;;;;;;;;;;;;8.68;100.00;94274.41;5057312;28;941;-64
2024/01/19 03:44:24;;;;;;;;;;;;;;;8.80;100.00;94286.34;5056666;28;1090;-64
2024/01/19 03:46:59;;;;;;;;;;;;;;;8.90;100.00;94295.00;5056663;28;997;-63
2024/01/19 03:49:33;;;;;;;;;;;;;;;8.89;100.00;94295.16;5056529;28;1906;-64
2024/01/19 03:52:08;;;;;;;;;;;;;;;8.85;100.00;94310.69;5058572;28;1224;-64
2024/01/19 03:54:42;;;;;;;;;;;;;;;8.69;100.00;94311.56;5076953;28;925;-63
2024/01/19 03:57:17;;;;;;;;;;;;;;;8.49;100.00;94296.94;5076640;28;1004;-63
2024/01/19 03:59:51;;;;;;;;;;;;;;;8.40;100.00;94301.41;5076359;28;980;-64
2024/01/19 04:02:23;;;;;;;;;;;;;;;8.52;100.00;94307.28;5076513;28;939;-64
2024/01/19 04:04:57;;;;;;;;;;;;;;;8.66;100.00;94309.22;5076645;28;1756;-64
2024/01/19 04:07:31;;;;;;;;;;;;;;;8.62;100.00;94310.56;5076358;28;933;-63
2024/01/19 04:10:06;;;;;;;;;;;;;;;8.73;100.00;94310.22;5076089;28;1906;-63
2024/01/19 04:12:40;;;;;;;;;;;;;;;8.57;100.00;94308.44;5076327;28;992;-63
2024/01/19 04:15:14;;;;;;;;;;;;;;;8.55;100.00;94320.22;5076365;28;1015;-61
2024/01/19 04:17:49;;;;;;;;;;;;;;;8.48;100.00;94314.75;5076166;28;937;-61
2024/01/19 04:20:21;;;;;;;;;;;;;;;8.50;100.00;94312.75;5075586;28;1421;-63
2024/01/19 04:22:54;;;;;;;;;;;;;;;8.52;100.00;94318.75;5076038;28;1605;-62
2024/01/19 04:25:29;;;;;;;;;;;;;;;8.42;100.00;94327.91;5075695;28;1270;-61
2024/01/19 04:28:03;;;;;;;;;;;;;;;8.40;100.00;94318.25;5076179;28;936;-62
2024/01/19 04:30:38;;;;;;;;;;;;;;;8.45;100.00;94320.41;5075911;28;1980;-62
2024/01/19 04:33:12;;;;;;;;;;;;;;;8.29;100.00;94315.06;5076008;28;848;-62
2024/01/19 04:35:44;;;;;;;;;;;;;;;8.30;100.00;94312.25;5075910;28;936;-62
2024/01/19 04:38:18;;;;;;;;;;;;;;;8.46;100.00;94323.91;5076297;28;996;-64
2024/01/19 04:40:53;;;;;;;;;;;;;;;8.27;100.00;94317.06;5076492;28;914;-63
2024/01/19 04:43:28;;;;;;;;;;;;;;;8.12;100.00;94319.56;5076054;28;941;-64
2024/01/19 04:46:02;;;;;;;;;;;;;;;8.27;100.00;94331.22;5075926;28;944;-68
2024/01/19 04:48:36;;;;;;;;;;;;;;;8.30;100.00;94330.88;5075657;28;1914;-64
2024/01/19 04:51:11;;;;;;;;;;;;;;;8.12;100.00;94330.22;5075354;28;1016;-63
2024/01/19 04:53:44;;;;;;;;;;;;;;;8.15;100.00;94330.72;5060089;28;1197;-62
2024/01/19 04:56:16;;;;;;;;;;;;;;;8.08;100.00;94326.22;5055750;28;1499;-62
2024/01/19 04:58:48;;;;;;;;;;;;;;;8.08;100.00;94336.88;5055593;28;1471;-61
2024/01/19 05:01:22;;;;;;;;;;;;;;;8.21;100.00;94337.19;5055347;28;1610;-62
2024/01/19 05:03:56;;;;;;;;;;;;;;;8.21;100.00;94342.53;5054325;28;1522;-61
2024/01/19 05:06:28;;;;;;;;;;;;;;;8.23;100.00;94343.19;5055328;28;1527;-62
2024/01/19 05:09:01;;;;;;;;;;;;;;;8.27;100.00;94341.03;5055237;28;1999;-62
2024/01/19 05:11:35;;;;;;;;;;;;;;;8.25;100.00;94335.03;5055218;28;928;-62
2024/01/19 05:14:07;;;;;;;;;;;;;;;8.31;100.00;94345.88;5055417;28;1718;-62
2024/01/19 05:16:41;;;;;;;;;;;;;;;8.23;100.00;94340.53;5055205;28;1448;-62
2024/01/19 05:19:13;;;;;;;;;;;;;;;8.26;100.00;94350.84;5054936;28;1598;-63
2024/01/19 05:21:45;;;;;;;;;;;;;;;8.25;100.00;94343.03;5055491;28;1538;-62
2024/01/19 05:24:18;;;;;;;;;;;;;;;8.28;100.00;94348.84;5055369;28;1504;-63
2024/01/19 05:26:51;;;;;;;;;;;;;;;8.28;100.00;94345.38;5055456;28;1624;-63
2024/01/19 05:29:23;;;;;;;;;;;;;;;8.13;100.00;94342.53;5055100;28;2000;-63
2024/01/19 05:31:57;;;;;;;;;;;;;;;8.14;100.00;94355.69;5054665;28;1515;-62
2024/01/19 05:34:29;;;;;;;;;;;;;;;8.31;100.00;94366.31;5055109;28;1495;-63
2024/01/19 05:37:01;;;;;;;;;;;;;;;8.25;100.00;94351.84;5054711;28;2344;-62
2024/01/19 05:39:33;;;;;;;;;;;;;;;8.14;100.00;94350.38;5054651;28;1641;-62
2024/01/19 05:42:07;;;;;;;;;;;;;;;8.13;100.00;94354.00;5054349;28;953;-61
2024/01/19 05:44:41;;;;;;;;;;;;;;;8.11;100.00;94353.34;5054687;28;1544;-61
2024/01/19 05:47:13;;;;;;;;;;;;;;;8.03;100.00;94356.00;5054613;28;1649;-63
2024/01/19 05:49:46;;;;;;;;;;;;;;;7.93;100.00;94365.97;5054457;28;1918;-61
2024/01/19 05:52:19;;;;;;;;;;;;;;;8.07;100.00;94370.66;5057962;28;1357;-62
2024/01/19 05:54:52;;;;;;;;;;;;;;;8.28;100.00;94366.69;5074277;28;1599;-61
2024/01/19 06:00:47;;;;;;;;;;;;;;;7.91;100.00;94357.31;5073935;28;767;-61
2024/01/19 06:03:20;;;;;;;;;;;;;;;7.90;100.00;94364.47;5074092;28;1557;-60
2024/01/19 06:05:52;;;;;;;;;;;;;;;8.02;100.00;94363.19;5034206;28;1590;-62
2024/01/19 06:08:24;;;;;;;;;;;;;;;8.21;100.00;94362.03;5032456;28;1617;-62
2024/01/19 06:10:56;;;;;;;;;;;;;;;8.31;100.00;94361.84;5032651;28;1906;-61
2024/01/19 06:13:29;;;;;;;;;;;;;;;8.30;100.00;94359.34;5033834;28;1480;-62
2024/01/19 06:16:04;;;;;;;;;;;;;;;8.22;100.00;94352.19;5033906;28;915;-61
2024/01/19 06:18:36;;;;;;;;;;;;;;;8.13;100.00;94363.84;5033887;28;1504;-60
2024/01/19 06:21:11;;;;;;;;;;;;;;;8.09;100.00;94378.47;5031928;28;1485;-61
2024/01/19 06:23:44;;;;;;;;;;;;;;;8.04;100.00;94391.44;5033206;28;1685;-63
2024/01/19 06:26:16;;;;;;;;;;;;;;;7.97;100.00;94400.09;5033683;28;1639;-62
2024/01/19 06:28:48;;;;;;;;;;;;;;;8.09;100.00;94395.28;5033861;28;1914;-62
2024/01/19 06:31:20;;;;;;;;;;;;;;;8.14;100.00;94397.47;5033623;28;1586;-61
2024/01/19 06:33:52;;;;;;;;;;;;;;;8.19;100.00;94395.97;5033787;28;1693;-61
2024/01/19 06:36:25;;;;;;;;;;;;;;;8.21;100.00;94398.44;5033774;28;1611;-62
2024/01/19 06:38:56;;;;;;;;;;;;;;;8.28;100.00;94401.28;5033806;28;1652;-62
2024/01/19 06:41:28;;;;;;;;;;;;;;;8.32;100.00;94399.97;5033606;28;1421;-61
2024/01/19 06:44:01;;;;;;;;;;;;;;;8.19;100.00;94403.97;5032471;28;1429;-61
2024/01/19 06:46:33;;;;;;;;;;;;;;;8.23;100.00;94409.75;5033573;28;1551;-61
2024/01/19 06:49:05;;;;;;;;;;;;;;;8.33;100.00;94407.78;5033544;28;1910;-61
2024/01/19 06:51:37;;;;;;;;;;;;;;;8.38;100.00;94415.28;5033611;28;1593;-61
2024/01/19 06:54:09;;;;;;;;;;;;;;;8.46;100.00;94411.81;5033402;28;1548;-61
2024/01/19 06:56:40;;;;;;;;;;;;;;;8.40;100.00;94398.16;5033422;28;1479;-61
2024/01/19 06:59:13;;;;;;;;;;;;;;;8.52;100.00;94395.19;5033519;28;1476;-62
2024/01/19 07:01:42;;;;;;;;;;;;;;;8.47;100.00;94397.50;5033332;28;1619;-61
2024/01/19 07:04:16;;;;;;;;;;;;;;;8.65;100.00;94400.84;5033324;28;1598;-61
2024/01/19 07:06:42;;;;;;;;;;;;;;;8.60;100.00;94397.84;5033360;28;968;-62
2024/01/19 07:09:08;;;;;;;;;;;;;;;8.59;100.00;94405.00;5037206;28;1977;-61
2024/01/19 07:11:37;;;;;;;;;;;;;;;8.63;100.00;94400.16;5037268;28;1115;-62
2024/01/19 07:14:03;;;;;;;;;;;;;;;8.71;100.00;94412.66;5037266;28;1044;-62
2024/01/19 07:16:29;;;;;;;;;;;;;;;8.77;100.00;94412.81;5037418;28;1063;-61
2024/01/19 07:18:55;;;;;;;;;;;;;;;8.75;100.00;94414.81;5037009;28;1056;-61
2024/01/19 07:21:22;;;;;;;;;;;;;;;9.00;100.00;94417.44;5036875;28;1207;-61
2024/01/19 07:23:48;;;;;;;;;;;;;;;9.07;100.00;94417.59;5037051;28;1094;-62
2024/01/19 07:26:17;;;;;;;;;;;;;;;9.10;100.00;94415.41;5037287;28;988;-61
2024/01/19 07:28:43;;;;;;;;;;;;;;;9.04;100.00;94405.44;5052569;28;1222;-61
2024/01/19 07:31:10;;;;;;;;;;;;;;;8.91;100.00;94407.78;5037363;28;973;-62
2024/01/19 07:33:36;;;;;;;;;;;;;;;8.91;100.00;94415.78;5036844;28;1060;-62
2024/01/19 07:36:03;;;;;;;;;;;;;;;8.81;100.00;94409.81;5037200;28;988;-62
2024/01/19 07:38:29;;;;;;;;;;;;;;;8.78;100.00;94408.31;5037300;28;969;-62
2024/01/19 07:40:55;;;;;;;;;;;;;;;8.93;100.00;94403.13;5035650;28;905;-62
2024/01/19 07:43:21;;;;;;;;;;;;;;;8.99;100.00;94399.78;5036792;28;976;-62
2024/01/19 07:45:47;;;;;;;;;;;;;;;9.16;100.00;94406.75;5036731;28;1048;-62
2024/01/19 07:48:13;;;;;;;;;;;;;;;9.36;100.00;94414.38;5036778;28;985;-62
2024/01/19 07:50:39;;;;;;;;;;;;;;;9.41;100.00;94416.50;5036515;28;1981;-62
2024/01/19 07:53:05;;;;;;;;;;;;;;;9.39;100.00;94424.69;5055783;28;1221;-64
2024/01/19 07:55:31;;;;;;;;;;;;;;;9.51;100.00;94417.16;5075521;28;1057;-63
2024/01/19 07:57:57;;;;;;;;;;;;;;;9.41;100.00;94409.34;5077064;28;1052;-64
2024/01/19 08:00:23;;;;;;;;;;;;;;;9.36;100.00;94422.38;5076743;28;1091;-61
2024/01/19 08:02:49;;;;;;;;;;;;;;;9.44;100.00;94435.66;5076419;28;969;-62
2024/01/19 08:05:15;;;;;;;;;;;;;;;9.43;100.00;94426.03;5075973;28;1096;-62
2024/01/19 08:07:41;;;;;;;;;;;;;;;9.44;100.00;94432.19;5076395;28;1056;-63
2024/01/19 08:10:07;;;;;;;;;;;;;;;9.70;100.00;94440.75;5074810;28;1989;-62
2024/01/19 08:12:33;;;;;;;;;;;;;;;9.74;100.00;94422.56;5075892;28;1265;-62
2024/01/19 08:14:59;;;;;;;;;;;;;;;9.51;100.00;94423.31;5076227;28;1055;-62
2024/01/19 08:17:25;;;;;;;;;;;;;;;9.49;100.00;94427.16;5076172;28;1036;-62
2024/01/19 08:19:51;;;;;;;;;;;;;;;9.55;100.00;94427.28;5075196;28;969;-62
2024/01/19 08:22:17;;;;;;;;;;;;;;;9.72;100.00;94424.56;5076013;28;1000;-62
2024/01/19 08:24:43;;;;;;;;;;;;;;;9.67;100.00;94437.59;5075655;28;1258;-63
2024/01/19 08:27:09;;;;;;;;;;;;;;;9.75;100.00;94440.22;5075973;28;1059;-62
2024/01/19 08:29:35;;;;;;;;;;;;;;;9.68;100.00;94453.44;5075908;28;1931;-62
2024/01/19 08:32:01;;;;;;;;;;;;;;;9.63;100.00;94461.13;5075639;28;1036;-62
2024/01/19 08:34:27;;;;;;;;;;;;;;;9.52;100.00;94457.00;5075500;28;1107;-62
2024/01/19 08:36:53;;;;;;;;;;;;;;;9.37;100.00;94456.03;5075676;28;965;-62
2024/01/19 08:39:19;;;;;;;;;;;;;;;9.46;100.00;94457.69;5075989;28;1111;-62
2024/01/19 08:41:47;;;;;;;;;;;;;;;9.76;100.00;94455.25;5075817;28;1060;-63
2024/01/19 08:44:13;;;;;;;;;;;;;;;9.80;100.00;94447.72;5075562;28;1003;-62
2024/01/19 08:46:45;;;;;;;;;;;;;;;9.89;100.00;94455.53;5075656;28;1060;-62
2024/01/19 08:49:12;;;;;;;;;;;;;;;10.21;100.00;94442.19;5075862;28;1902;-62
2024/01/19 08:51:38;;;;;;;;;;;;;;;10.24;100.00;94441.81;5075340;28;1088;-62
2024/01/19 08:54:05;;;;;;;;;;;;;;;10.23;100.00;94449.00;5057596;28;1220;-63
2024/01/19 08:56:31;;;;;;;;;;;;;;;10.11;100.00;94435.22;5055159;28;957;-62
2024/01/19 08:58:57;;;;;;;;;;;;;;;9.92;100.00;94438.31;5055458;28;1041;-62
2024/01/19 09:01:23;;;;;;;;;;;;;;;10.22;100.00;94447.34;5053791;28;1061;-62
2024/01/19 09:03:49;;;;;;;;;;;;;;;10.59;100.00;94447.66;5055194;28;1051;-62
2024/01/19 09:06:15;;;;;;;;;;;;;;;10.49;100.00;94447.84;5055203;28;968;-62
2024/01/19 09:08:42;;;;;;;;;;;;;;;10.60;100.00;94441.28;5054992;28;1016;-62
2024/01/19 09:11:08;;;;;;;;;;;;;;;10.86;100.00;94440.91;5054890;28;1949;-63
2024/01/19 09:13:37;;;;;;;;;;;;;;;11.28;100.00;94436.84;5055021;28;968;-61
2024/01/19 09:16:04;;;;;;;;;;;;;;;11.59;100.00;94449.22;5054925;28;1119;-63
2024/01/19 09:18:30;;;;;;;;;;;;;;;11.52;100.00;94443.78;5054812;28;988;-62
2024/01/19 09:20:56;;;;;;;;;;;;;;;11.60;100.00;94442.88;5054747;28;957;-62
2024/01/19 09:23:22;;;;;;;;;;;;;;;11.70;100.00;94433.53;5054970;28;932;-63
2024/01/19 09:25:49;;;;;;;;;;;;;;;12.18;100.00;94445.69;5054495;28;1235;-63
2024/01/19 09:28:15;;;;;;;;;;;;;;;12.16;100.00;94445.91;5054517;28;1220;-63
2024/01/19 09:30:41;;;;;;;;;;;;;;;11.84;100.00;94442.56;5054389;28;1926;-62
2024/01/19 09:33:07;;;;;;;;;;;;;;;11.86;100.00;94432.50;5054468;28;1083;-63
2024/01/19 09:35:33;;;;;;;;;;;;;;;11.96;100.00;94439.47;5054584;28;1044;-63
2024/01/19 09:37:59;;;;;;;;;;;;;;;12.10;100.00;94436.75;5053398;28;958;-64
2024/01/19 09:40:25;;;;;;;;;;;;;;;12.38;98.87;94435.19;5054174;28;1024;-63
2024/01/19 09:42:54;;;;;;;;;;;;;;;12.83;96.20;94436.69;5054251;28;1028;-63
2024/01/19 09:45:21;;;;;;;;;;;;;;;13.44;93.01;94444.22;5054426;28;984;-62
2024/01/19 09:47:58;;;;;;;;;;;;;;;13.55;89.15;94444.72;5054504;28;989;-63
2024/01/19 09:50:32;;;;;;;;;;;;;;;13.78;91.60;94439.06;5054528;28;1910;-62
2024/01/19 09:52:59;;;;;;;;;;;;;;;13.88;89.59;94436.03;5062703;28;1138;-61
2024/01/19 09:55:29;;;;;;;;;;;;;;;13.75;89.09;94428.72;5074126;28;1036;-62
2024/01/19 09:57:56;;;;;;;;;;;;;;;13.80;90.47;94429.78;5074538;28;1445;-61
2024/01/19 10:00:22;;;;;;;;;;;;;;;13.97;90.40;94424.09;5073773;28;1092;-61
2024/01/19 10:02:48;;;;;;;;;;;;;;;14.20;87.86;94421.88;5074126;28;996;-62
2024/01/19 10:05:16;;;;;;;;;;;;;;;14.04;88.29;94419.56;5073693;28;1041;-61
2024/01/19 10:07:43;;;;;;;;;;;;;;;13.83;87.90;94401.69;5073691;28;1028;-63
2024/01/19 10:10:10;;;;;;;;;;;;;;;14.06;87.25;94399.50;5073942;28;1987;-63
2024/01/19 10:12:39;;;;;;;;;;;;;;;14.53;84.71;94388.06;5073815;28;973;-63
2024/01/19 10:15:06;;;;;;;;;;;;;;;14.42;85.06;94376.06;5073633;28;1044;-62
2024/01/19 10:17:33;;;;;;;;;;;;;;;14.47;87.31;94368.19;5073849;28;1181;-62
2024/01/19 10:19:59;;;;;;;;;;;;;;;14.35;84.34;94376.03;5073477;28;1038;-63
2024/01/19 10:22:27;;;;;;;;;;;;;;;14.75;83.41;94391.44;5073745;28;976;-62
2024/01/19 10:25:08;;;;;;;;;;;;;;;14.76;83.78;94382.31;5072235;28;1192;-61
2024/01/19 10:27:40;;;;;;;;;;;;;;;15.06;81.90;94371.97;5073551;28;977;-60
2024/01/19 10:30:12;;;;;;;;;;;;;;;14.80;83.64;94372.81;5062949;28;1898;-63
2024/01/19 10:32:39;;;;;;;;;;;;;;;14.49;83.33;94374.19;5053466;28;1022;-62
2024/01/19 10:35:07;;;;;;;;;;;;;;;14.76;83.69;94372.41;5053348;28;973;-62
2024/01/19 10:37:33;;;;;;;;;;;;;;;14.67;84.43;94367.44;5053173;28;2008;-61
2024/01/19 10:40:16;;;;;;;;;;;;;;;14.63;83.43;94377.78;5053429;28;1088;-63
2024/01/19 10:42:42;;;;;;;;;;;;;;;14.79;82.91;94365.78;5052851;28;1011;-62
2024/01/19 10:45:22;;;;;;;;;;;;;;;15.59;80.81;94360.31;5053277;28;1048;-64
2024/01/19 10:47:52;;;;;;;;;;;;;;;15.91;79.78;94363.13;5053404;28;973;-63
2024/01/19 10:50:19;;;;;;;;;;;;;;;15.28;81.52;94361.81;5053008;28;1906;-63
2024/01/19 10:52:49;;;;;;;;;;;;;;;15.11;78.92;94368.69;5060223;28;1161;-63
2024/01/19 10:55:19;;;;;;;;;;;;;;;15.66;79.45;94353.03;5072070;28;982;-62
2024/01/19 10:57:46;;;;;;;;;;;;;;;15.75;82.43;94341.00;5073320;28;991;-62
2024/01/19 11:00:20;;;;;;;;;;;;;;;15.73;81.57;94329.63;5073310;28;968;-64
2024/01/19 11:02:50;;;;;;;;;;;;;;;15.53;83.77;94328.81;5073271;28;1027;-64
2024/01/19 11:05:18;;;;;;;;;;;;;;;15.77;85.32;94336.25;5073431;28;1008;-64
2024/01/19 11:07:44;;;;;;;;;;;;;;;15.78;84.83;94335.22;5073108;28;1051;-63
2024/01/19 11:10:10;;;;;;;;;;;;;;;15.65;84.85;94334.38;5073136;28;1914;-64
2024/01/19 11:12:38;;;;;;;;;;;;;;;16.18;83.62;94329.63;5072947;28;1024;-64
2024/01/19 11:15:06;;;;;;;;;;;;;;;16.00;83.00;94326.81;5072982;28;1040;-64
2024/01/19 11:17:32;;;;;;;;;;;;;;;16.07;82.22;94322.22;5073154;28;1012;-64
2024/01/19 11:19:58;;;;;;;;;;;;;;;16.26;83.49;94316.91;5072905;28;1104;-63
2024/01/19 11:22:25;;;;;;;;;;;;;;;15.86;85.62;94330.59;5073138;28;1008;-64
2024/01/19 11:24:52;;;;;;;;;;;;;;;15.86;86.96;94336.00;5072566;28;1073;-64
2024/01/19 11:27:23;;;;;;;;;;;;;;;16.17;84.82;94336.06;5072701;28;1024;-64
2024/01/19 11:29:51;;;;;;;;;;;;;;;15.61;84.26;94325.88;5072713;28;1975;-64
2024/01/19 11:32:18;;;;;;;;;;;;;;;15.17;87.02;94328.28;5048404;28;1527;-66
2024/01/19 11:34:51;;;;;;;;;;;;;;;15.10;88.61;94318.53;5042306;28;1257;-67
2024/01/19 11:37:35;;;;;;;;;;;;;;;14.85;90.04;94327.25;5041381;28;1442;-66
2024/01/19 11:40:01;;;;;;;;;;;;;;;14.64;91.41;94318.38;5042548;28;1379;-66
2024/01/19 11:42:48;;;;;;;;;;;;;;;14.49;92.39;94323.09;5040721;28;1126;-63
2024/01/19 11:45:32;;;;;;;;;;;;;;;14.87;91.48;94327.88;5033191;28;1611;-65
2024/01/19 11:47:58;;;;;;;;;;;;;;;14.75;91.96;94322.31;5040472;28;1519;-64
2024/01/19 11:50:47;;;;;;;;;;;;;;;14.67;92.35;94319.84;5040958;28;1902;-67
2024/01/19 11:53:14;;;;;;;;;;;;;;;14.60;91.35;94313.63;5041883;28;1277;-64
2024/01/19 11:55:41;;;;;;;;;;;;;;;14.68;91.47;94310.72;5045651;28;1311;-65
2024/01/19 11:58:25;;;;;;;;;;;;;;;15.20;90.35;94308.19;5045257;28;1304;-65
2024/01/19 12:00:52;;;;;;;;;;;;;;;14.97;88.59;94311.34;5045413;28;1284;-62
2024/01/19 12:03:19;;;;;;;;;;;;;;;15.35;87.77;94303.41;5045273;28;1291;-65
2024/01/19 12:05:47;;;;;;;;;;;;;;;15.66;85.99;94315.31;5046710;28;1387;-63
2024/01/19 12:08:13;;;;;;;;;;;;;;;15.72;84.81;94309.06;5045828;28;1311;-63
2024/01/19 12:10:39;;;;;;;;;;;;;;;15.85;83.14;94315.47;5045097;28;1985;-63
2024/01/19 12:13:05;;;;;;;;;;;;;;;15.89;82.86;94327.50;5046694;28;1344;-63
2024/01/19 12:15:31;;;;;;;;;;;;;;;16.09;82.16;94330.91;5045346;28;1194;-65
2024/01/19 12:17:58;;;;;;;;;;;;;;;16.08;82.58;94315.78;5045309;28;1232;-65
2024/01/19 12:20:25;;;;;;;;;;;;;;;16.05;82.65;94310.84;5046682;28;1296;-66
2024/01/19 12:22:52;;;;;;;;;;;;;;;15.86;79.88;94307.19;5045151;28;1280;-66
2024/01/19 12:25:19;;;;;;;;;;;;;;;15.63;81.97;94302.25;5045113;28;1248;-66
2024/01/19 12:27:46;;;;;;;;;;;;;;;15.79;81.87;94306.38;5046092;28;1292;-66
2024/01/19 12:30:13;;;;;;;;;;;;;;;15.80;79.61;94305.31;5044368;28;1910;-66
2024/01/19 12:32:40;;;;;;;;;;;;;;;15.78;79.68;94313.66;5045450;28;1288;-65
2024/01/19 12:35:06;;;;;;;;;;;;;;;15.99;79.76;94306.28;5045012;28;1316;-66
2024/01/19 12:37:32;;;;;;;;;;;;;;;16.14;79.06;94306.00;5043053;28;1297;-66
2024/01/19 12:40:12;;;;;;;;;;;;;;;16.36;77.99;94301.91;5045517;28;1209;-66
2024/01/19 12:42:38;;;;;;;;;;;;;;;16.40;75.74;94297.75;5044822;28;1350;-66
2024/01/19 12:45:04;;;;;;;;;;;;;;;16.56;76.54;94299.09;5048883;28;1676;-66
2024/01/19 12:47:30;;;;;;;;;;;;;;;16.50;74.60;94288.34;5055359;28;1060;-66
2024/01/19 12:49:59;;;;;;;;;;;;;;;16.52;70.81;94288.94;5055298;28;1902;-66
2024/01/19 12:52:25;;;;;;;;;;;;;;;16.54;68.02;94287.69;5059362;28;1165;-66
2024/01/19 12:54:51;;;;;;;;;;;;;;;16.72;72.09;94288.81;5075261;28;1060;-66
2024/01/19 12:57:17;;;;;;;;;;;;;;;16.89;73.59;94294.50;5073912;28;1103;-66
2024/01/19 12:59:44;;;;;;;;;;;;;;;16.97;66.89;94305.84;5075390;28;1067;-66
2024/01/19 13:02:10;;;;;;;;;;;;;;;16.78;64.49;94298.72;5075448;28;1055;-66
2024/01/19 13:04:37;;;;;;;;;;;;;;;16.53;62.56;94296.00;5075191;28;1046;-64
2024/01/19 13:07:03;;;;;;;;;;;;;;;16.51;65.10;94293.53;5074682;28;972;-65
2024/01/19 13:09:29;;;;;;;;;;;;;;;16.61;66.30;94284.13;5070101;28;1900;-65
2024/01/19 13:12:11;;;;;;;;;;;;;;;16.63;65.60;94287.41;5054878;28;1036;-65
2024/01/19 13:14:37;;;;;;;;;;;;;;;16.75;66.82;94291.88;5049518;28;1079;-66
2024/01/19 13:17:03;;;;;;;;;;;;;;;16.77;66.56;94299.78;5041723;28;1335;-67
2024/01/19 13:19:30;;;;;;;;;;;;;;;16.73;60.64;94312.03;5042854;28;1307;-65
2024/01/19 13:21:56;;;;;;;;;;;;;;;16.70;60.06;94318.72;5045408;28;1288;-67